sensor_id;sensor_type;location;lat;lon;timestamp;P1;P2;P0
56688;PMS5003;42565;53.342;-1.534;2023-04-25T00:00:48;3;3;
56688;PMS5003;42565;53.342;-1.534;2023-04-25T00:03:15;3;2;
56688;PMS5003;42565;53.342;-1.534;2023-04-25T00:05:43;4;3;
56688;PMS5003;42565;53.342;-1.534;2023-04-25T00:08:10;6;4;
56688;PMS5003;42565;53.342;-1.534;2023-04-25T00:10:37;2;2;
56688;PMS5003;42565;53.342;-1.534;2023-04-25T00:13:04;4;2;
56688;PMS5003;42565;53.342;-1.534;2023-04-25T00:15:30;5;5;
56688;PMS5003;42565;53.342;-1.534;2023-04-25T00:17:57;2;2;
56688;PMS5003;42565;53.342;-1.534;2023-04-25T00:20:24;3;3;
56688;PMS5003;42565;53.342;-1.534;2023-04-25T00:22:51;5;3;
56688;PMS5003;42565;53.342;-1.534;2023-04-25T00:25:18;4;3;
56688;PMS5003;42565;53.342;-1.534;2023-04-25T00:27:45;2;2;
56688;PMS5003;42565;53.342;-1.534;2023-04-25T00:30:23;4;3;
56688;PMS5003;42565;53.342;-1.534;2023-04-25T00:32:50;3;3;
56688;PMS5003;42565;53.342;-1.534;2023-04-25T00:35:18;4;3;
56688;PMS5003;42565;53.342;-1.534;2023-04-25T00:37:45;4;3;
56688;PMS5003;42565;53.342;-1.534;2023-04-25T00:40:12;3;3;
56688;PMS5003;42565;53.342;-1.534;2023-04-25T00:42:40;3;3;
56688;PMS5003;42565;53.342;-1.534;2023-04-25T00:45:08;4;3;
56688;PMS5003;42565;53.342;-1.534;2023-04-25T00:47:39;5;4;
56688;PMS5003;42565;53.342;-1.534;2023-04-25T00:50:07;5;4;
56688;PMS5003;42565;53.342;-1.534;2023-04-25T00:52:35;5;4;
56688;PMS5003;42565;53.342;-1.534;2023-04-25T00:55:04;4;2;
56688;PMS5003;42565;53.342;-1.534;2023-04-25T00:57:33;5;5;
56688;PMS5003;42565;53.342;-1.534;2023-04-25T01:00:00;4;3;
56688;PMS5003;42565;53.342;-1.534;2023-04-25T01:02:29;5;4;
56688;PMS5003;42565;53.342;-1.534;2023-04-25T01:04:57;3;3;
56688;PMS5003;42565;53.342;-1.534;2023-04-25T01:07:24;2;2;
56688;PMS5003;42565;53.342;-1.534;2023-04-25T01:09:52;4;3;
56688;PMS5003;42565;53.342;-1.534;2023-04-25T01:12:19;5;3;
56688;PMS5003;42565;53.342;-1.534;2023-04-25T01:14:49;3;2;
56688;PMS5003;42565;53.342;-1.534;2023-04-25T01:17:17;7;4;
56688;PMS5003;42565;53.342;-1.534;2023-04-25T01:19:47;3;3;
56688;PMS5003;42565;53.342;-1.534;2023-04-25T01:22:15;3;2;
56688;PMS5003;42565;53.342;-1.534;2023-04-25T01:24:42;2;2;
56688;PMS5003;42565;53.342;-1.534;2023-04-25T01:27:10;4;3;
56688;PMS5003;42565;53.342;-1.534;2023-04-25T01:29:38;3;3;
56688;PMS5003;42565;53.342;-1.534;2023-04-25T01:32:06;5;4;
56688;PMS5003;42565;53.342;-1.534;2023-04-25T01:34:33;3;2;
56688;PMS5003;42565;53.342;-1.534;2023-04-25T01:37:01;3;3;
56688;PMS5003;42565;53.342;-1.534;2023-04-25T01:39:28;4;2;
56688;PMS5003;42565;53.342;-1.534;2023-04-25T01:41:55;5;3;
56688;PMS5003;42565;53.342;-1.534;2023-04-25T01:44:24;2;2;
56688;PMS5003;42565;53.342;-1.534;2023-04-25T01:46:52;3;2;
56688;PMS5003;42565;53.342;-1.534;2023-04-25T01:49:18;2;2;
56688;PMS5003;42565;53.342;-1.534;2023-04-25T01:51:45;4;2;
56688;PMS5003;42565;53.342;-1.534;2023-04-25T01:54:12;4;3;
56688;PMS5003;42565;53.342;-1.534;2023-04-25T01:56:40;3;3;
56688;PMS5003;42565;53.342;-1.534;2023-04-25T01:59:06;2;2;
56688;PMS5003;42565;53.342;-1.534;2023-04-25T02:01:34;2;2;
56688;PMS5003;42565;53.342;-1.534;2023-04-25T02:04:01;3;2;
56688;PMS5003;42565;53.342;-1.534;2023-04-25T02:06:29;4;3;
56688;PMS5003;42565;53.342;-1.534;2023-04-25T02:08:56;2;2;
56688;PMS5003;42565;53.342;-1.534;2023-04-25T02:11:24;3;3;
56688;PMS5003;42565;53.342;-1.534;2023-04-25T02:13:51;1;1;
56688;PMS5003;42565;53.342;-1.534;2023-04-25T02:16:18;3;2;
56688;PMS5003;42565;53.342;-1.534;2023-04-25T02:18:45;2;2;
56688;PMS5003;42565;53.342;-1.534;2023-04-25T02:21:12;3;3;
56688;PMS5003;42565;53.342;-1.534;2023-04-25T02:23:39;3;2;
56688;PMS5003;42565;53.342;-1.534;2023-04-25T02:26:06;2;2;
56688;PMS5003;42565;53.342;-1.534;2023-04-25T02:28:33;2;2;
56688;PMS5003;42565;53.342;-1.534;2023-04-25T02:31:01;2;0;
56688;PMS5003;42565;53.342;-1.534;2023-04-25T02:33:28;5;2;
56688;PMS5003;42565;53.342;-1.534;2023-04-25T02:35:56;3;3;
56688;PMS5003;42565;53.342;-1.534;2023-04-25T02:38:24;2;2;
56688;PMS5003;42565;53.342;-1.534;2023-04-25T02:40:51;4;4;
56688;PMS5003;42565;53.342;-1.534;2023-04-25T02:43:19;4;2;
56688;PMS5003;42565;53.342;-1.534;2023-04-25T02:45:47;3;3;
56688;PMS5003;42565;53.342;-1.534;2023-04-25T02:48:14;3;2;
56688;PMS5003;42565;53.342;-1.534;2023-04-25T02:50:41;3;2;
56688;PMS5003;42565;53.342;-1.534;2023-04-25T02:53:09;3;2;
56688;PMS5003;42565;53.342;-1.534;2023-04-25T02:55:37;3;3;
56688;PMS5003;42565;53.342;-1.534;2023-04-25T02:58:04;2;1;
56688;PMS5003;42565;53.342;-1.534;2023-04-25T03:00:32;3;3;
56688;PMS5003;42565;53.342;-1.534;2023-04-25T03:02:59;5;3;
56688;PMS5003;42565;53.342;-1.534;2023-04-25T03:05:26;3;2;
56688;PMS5003;42565;53.342;-1.534;2023-04-25T03:07:54;3;1;
56688;PMS5003;42565;53.342;-1.534;2023-04-25T03:10:21;2;2;
56688;PMS5003;42565;53.342;-1.534;2023-04-25T03:12:48;3;3;
56688;PMS5003;42565;53.342;-1.534;2023-04-25T03:15:15;3;2;
56688;PMS5003;42565;53.342;-1.534;2023-04-25T03:17:43;2;2;
56688;PMS5003;42565;53.342;-1.534;2023-04-25T03:20:10;1;1;
56688;PMS5003;42565;53.342;-1.534;2023-04-25T03:22:38;3;2;
56688;PMS5003;42565;53.342;-1.534;2023-04-25T03:25:05;2;2;
56688;PMS5003;42565;53.342;-1.534;2023-04-25T03:27:33;4;3;
56688;PMS5003;42565;53.342;-1.534;2023-04-25T03:30:01;1;1;
56688;PMS5003;42565;53.342;-1.534;2023-04-25T03:32:28;3;3;
56688;PMS5003;42565;53.342;-1.534;2023-04-25T03:34:56;2;1;
56688;PMS5003;42565;53.342;-1.534;2023-04-25T03:37:24;1;0;
56688;PMS5003;42565;53.342;-1.534;2023-04-25T03:39:52;2;2;
56688;PMS5003;42565;53.342;-1.534;2023-04-25T03:42:19;2;2;
56688;PMS5003;42565;53.342;-1.534;2023-04-25T03:44:46;2;2;
56688;PMS5003;42565;53.342;-1.534;2023-04-25T03:47:13;3;3;
56688;PMS5003;42565;53.342;-1.534;2023-04-25T03:49:40;3;2;
56688;PMS5003;42565;53.342;-1.534;2023-04-25T03:52:08;1;1;
56688;PMS5003;42565;53.342;-1.534;2023-04-25T03:54:36;4;3;
56688;PMS5003;42565;53.342;-1.534;2023-04-25T03:57:03;4;3;
56688;PMS5003;42565;53.342;-1.534;2023-04-25T03:59:31;4;2;
56688;PMS5003;42565;53.342;-1.534;2023-04-25T04:01:59;2;2;
56688;PMS5003;42565;53.342;-1.534;2023-04-25T04:04:26;3;2;
56688;PMS5003;42565;53.342;-1.534;2023-04-25T04:06:54;2;2;
56688;PMS5003;42565;53.342;-1.534;2023-04-25T04:09:22;2;2;
56688;PMS5003;42565;53.342;-1.534;2023-04-25T04:11:49;5;2;
56688;PMS5003;42565;53.342;-1.534;2023-04-25T04:14:17;3;2;
56688;PMS5003;42565;53.342;-1.534;2023-04-25T04:16:45;2;1;
56688;PMS5003;42565;53.342;-1.534;2023-04-25T04:19:13;3;2;
56688;PMS5003;42565;53.342;-1.534;2023-04-25T04:21:41;4;3;
56688;PMS5003;42565;53.342;-1.534;2023-04-25T04:24:09;2;2;
56688;PMS5003;42565;53.342;-1.534;2023-04-25T04:26:36;2;2;
56688;PMS5003;42565;53.342;-1.534;2023-04-25T04:29:04;4;3;
56688;PMS5003;42565;53.342;-1.534;2023-04-25T04:31:31;1;1;
56688;PMS5003;42565;53.342;-1.534;2023-04-25T04:33:59;1;1;
56688;PMS5003;42565;53.342;-1.534;2023-04-25T04:36:26;2;1;
56688;PMS5003;42565;53.342;-1.534;2023-04-25T04:38:53;3;2;
56688;PMS5003;42565;53.342;-1.534;2023-04-25T04:41:20;4;2;
56688;PMS5003;42565;53.342;-1.534;2023-04-25T04:43:47;3;2;
56688;PMS5003;42565;53.342;-1.534;2023-04-25T04:46:14;2;1;
56688;PMS5003;42565;53.342;-1.534;2023-04-25T04:48:42;3;3;
56688;PMS5003;42565;53.342;-1.534;2023-04-25T04:51:09;2;2;
56688;PMS5003;42565;53.342;-1.534;2023-04-25T04:53:37;3;2;
56688;PMS5003;42565;53.342;-1.534;2023-04-25T04:56:05;2;2;
56688;PMS5003;42565;53.342;-1.534;2023-04-25T04:58:32;3;2;
56688;PMS5003;42565;53.342;-1.534;2023-04-25T05:01:00;2;2;
56688;PMS5003;42565;53.342;-1.534;2023-04-25T05:03:27;3;2;
56688;PMS5003;42565;53.342;-1.534;2023-04-25T05:05:55;2;2;
56688;PMS5003;42565;53.342;-1.534;2023-04-25T05:08:23;2;2;
56688;PMS5003;42565;53.342;-1.534;2023-04-25T05:10:51;2;2;
56688;PMS5003;42565;53.342;-1.534;2023-04-25T05:13:18;1;1;
56688;PMS5003;42565;53.342;-1.534;2023-04-25T05:15:46;3;2;
56688;PMS5003;42565;53.342;-1.534;2023-04-25T05:18:13;1;1;
56688;PMS5003;42565;53.342;-1.534;2023-04-25T05:20:40;2;2;
56688;PMS5003;42565;53.342;-1.534;2023-04-25T05:23:07;5;3;
56688;PMS5003;42565;53.342;-1.534;2023-04-25T05:25:34;2;2;
56688;PMS5003;42565;53.342;-1.534;2023-04-25T05:28:01;5;3;
56688;PMS5003;42565;53.342;-1.534;2023-04-25T05:30:29;3;2;
56688;PMS5003;42565;53.342;-1.534;2023-04-25T05:32:57;4;3;
56688;PMS5003;42565;53.342;-1.534;2023-04-25T05:35:24;2;2;
56688;PMS5003;42565;53.342;-1.534;2023-04-25T05:37:52;2;1;
56688;PMS5003;42565;53.342;-1.534;2023-04-25T05:40:20;3;2;
56688;PMS5003;42565;53.342;-1.534;2023-04-25T05:42:46;3;2;
56688;PMS5003;42565;53.342;-1.534;2023-04-25T05:45:13;2;2;
56688;PMS5003;42565;53.342;-1.534;2023-04-25T05:47:41;3;2;
56688;PMS5003;42565;53.342;-1.534;2023-04-25T05:50:09;2;2;
56688;PMS5003;42565;53.342;-1.534;2023-04-25T05:52:36;2;2;
56688;PMS5003;42565;53.342;-1.534;2023-04-25T05:55:04;3;3;
56688;PMS5003;42565;53.342;-1.534;2023-04-25T05:57:32;3;2;
56688;PMS5003;42565;53.342;-1.534;2023-04-25T05:59:59;3;3;
56688;PMS5003;42565;53.342;-1.534;2023-04-25T06:02:27;2;2;
56688;PMS5003;42565;53.342;-1.534;2023-04-25T06:04:55;2;1;
56688;PMS5003;42565;53.342;-1.534;2023-04-25T06:07:22;4;2;
56688;PMS5003;42565;53.342;-1.534;2023-04-25T06:09:50;2;2;
56688;PMS5003;42565;53.342;-1.534;2023-04-25T06:12:18;2;2;
56688;PMS5003;42565;53.342;-1.534;2023-04-25T06:14:45;5;4;
56688;PMS5003;42565;53.342;-1.534;2023-04-25T06:17:12;2;2;
56688;PMS5003;42565;53.342;-1.534;2023-04-25T06:19:39;4;1;
56688;PMS5003;42565;53.342;-1.534;2023-04-25T06:22:07;3;3;
56688;PMS5003;42565;53.342;-1.534;2023-04-25T06:24:35;2;2;
56688;PMS5003;42565;53.342;-1.534;2023-04-25T06:27:02;2;2;
56688;PMS5003;42565;53.342;-1.534;2023-04-25T06:29:30;2;2;
56688;PMS5003;42565;53.342;-1.534;2023-04-25T06:31:58;3;3;
56688;PMS5003;42565;53.342;-1.534;2023-04-25T06:34:24;3;1;
56688;PMS5003;42565;53.342;-1.534;2023-04-25T06:36:51;4;3;
56688;PMS5003;42565;53.342;-1.534;2023-04-25T06:39:19;3;2;
56688;PMS5003;42565;53.342;-1.534;2023-04-25T06:41:46;3;2;
56688;PMS5003;42565;53.342;-1.534;2023-04-25T06:44:12;2;2;
56688;PMS5003;42565;53.342;-1.534;2023-04-25T06:46:39;3;3;
56688;PMS5003;42565;53.342;-1.534;2023-04-25T06:49:07;3;1;
56688;PMS5003;42565;53.342;-1.534;2023-04-25T06:51:34;2;2;
56688;PMS5003;42565;53.342;-1.534;2023-04-25T06:54:02;3;2;
56688;PMS5003;42565;53.342;-1.534;2023-04-25T06:56:30;3;2;
56688;PMS5003;42565;53.342;-1.534;2023-04-25T06:58:56;3;3;
56688;PMS5003;42565;53.342;-1.534;2023-04-25T07:01:24;3;2;
56688;PMS5003;42565;53.342;-1.534;2023-04-25T07:03:52;5;4;
56688;PMS5003;42565;53.342;-1.534;2023-04-25T07:06:19;3;3;
56688;PMS5003;42565;53.342;-1.534;2023-04-25T07:08:47;3;2;
56688;PMS5003;42565;53.342;-1.534;2023-04-25T07:11:14;4;2;
56688;PMS5003;42565;53.342;-1.534;2023-04-25T07:13:41;4;3;
56688;PMS5003;42565;53.342;-1.534;2023-04-25T07:16:09;2;2;
56688;PMS5003;42565;53.342;-1.534;2023-04-25T07:18:37;4;2;
56688;PMS5003;42565;53.342;-1.534;2023-04-25T07:21:05;2;2;
56688;PMS5003;42565;53.342;-1.534;2023-04-25T07:23:33;1;1;
56688;PMS5003;42565;53.342;-1.534;2023-04-25T07:26:00;2;2;
56688;PMS5003;42565;53.342;-1.534;2023-04-25T07:28:28;3;2;
56688;PMS5003;42565;53.342;-1.534;2023-04-25T07:30:55;2;2;
56688;PMS5003;42565;53.342;-1.534;2023-04-25T07:33:23;4;3;
56688;PMS5003;42565;53.342;-1.534;2023-04-25T07:35:51;3;2;
56688;PMS5003;42565;53.342;-1.534;2023-04-25T07:38:19;4;4;
56688;PMS5003;42565;53.342;-1.534;2023-04-25T07:40:47;1;1;
56688;PMS5003;42565;53.342;-1.534;2023-04-25T07:43:14;3;3;
56688;PMS5003;42565;53.342;-1.534;2023-04-25T07:45:42;3;3;
56688;PMS5003;42565;53.342;-1.534;2023-04-25T07:48:10;5;3;
56688;PMS5003;42565;53.342;-1.534;2023-04-25T07:50:37;3;3;
56688;PMS5003;42565;53.342;-1.534;2023-04-25T07:53:05;4;3;
56688;PMS5003;42565;53.342;-1.534;2023-04-25T07:55:32;3;2;
56688;PMS5003;42565;53.342;-1.534;2023-04-25T07:58:00;5;4;
56688;PMS5003;42565;53.342;-1.534;2023-04-25T08:00:28;3;2;
56688;PMS5003;42565;53.342;-1.534;2023-04-25T08:02:55;2;2;
56688;PMS5003;42565;53.342;-1.534;2023-04-25T08:05:23;3;2;
56688;PMS5003;42565;53.342;-1.534;2023-04-25T08:07:50;4;2;
56688;PMS5003;42565;53.342;-1.534;2023-04-25T08:10:18;3;3;
56688;PMS5003;42565;53.342;-1.534;2023-04-25T08:12:46;4;3;
56688;PMS5003;42565;53.342;-1.534;2023-04-25T08:15:13;2;2;
56688;PMS5003;42565;53.342;-1.534;2023-04-25T08:17:41;2;1;
56688;PMS5003;42565;53.342;-1.534;2023-04-25T08:20:09;3;3;
56688;PMS5003;42565;53.342;-1.534;2023-04-25T08:22:38;6;3;
56688;PMS5003;42565;53.342;-1.534;2023-04-25T08:25:06;3;2;
56688;PMS5003;42565;53.342;-1.534;2023-04-25T08:27:33;2;2;
56688;PMS5003;42565;53.342;-1.534;2023-04-25T08:30:01;3;3;
56688;PMS5003;42565;53.342;-1.534;2023-04-25T08:32:28;3;3;
56688;PMS5003;42565;53.342;-1.534;2023-04-25T08:34:56;4;4;
56688;PMS5003;42565;53.342;-1.534;2023-04-25T08:37:23;3;3;
56688;PMS5003;42565;53.342;-1.534;2023-04-25T08:39:51;0;0;
56688;PMS5003;42565;53.342;-1.534;2023-04-25T08:42:18;3;3;
56688;PMS5003;42565;53.342;-1.534;2023-04-25T08:44:48;4;4;
56688;PMS5003;42565;53.342;-1.534;2023-04-25T08:47:15;2;2;
56688;PMS5003;42565;53.342;-1.534;2023-04-25T08:49:48;5;3;
56688;PMS5003;42565;53.342;-1.534;2023-04-25T08:52:21;5;4;
56688;PMS5003;42565;53.342;-1.534;2023-04-25T08:54:49;2;2;
56688;PMS5003;42565;53.342;-1.534;2023-04-25T08:57:19;4;3;
56688;PMS5003;42565;53.342;-1.534;2023-04-25T08:59:47;4;3;
56688;PMS5003;42565;53.342;-1.534;2023-04-25T09:02:15;4;3;
56688;PMS5003;42565;53.342;-1.534;2023-04-25T09:04:43;3;2;
56688;PMS5003;42565;53.342;-1.534;2023-04-25T09:07:11;4;3;
56688;PMS5003;42565;53.342;-1.534;2023-04-25T09:09:38;3;2;
56688;PMS5003;42565;53.342;-1.534;2023-04-25T09:12:06;3;3;
56688;PMS5003;42565;53.342;-1.534;2023-04-25T09:14:34;3;2;
56688;PMS5003;42565;53.342;-1.534;2023-04-25T09:17:02;3;2;
56688;PMS5003;42565;53.342;-1.534;2023-04-25T09:19:31;2;2;
56688;PMS5003;42565;53.342;-1.534;2023-04-25T09:22:00;3;2;
56688;PMS5003;42565;53.342;-1.534;2023-04-25T09:24:30;3;3;
56688;PMS5003;42565;53.342;-1.534;2023-04-25T09:26:58;6;4;
56688;PMS5003;42565;53.342;-1.534;2023-04-25T09:29:29;3;3;
56688;PMS5003;42565;53.342;-1.534;2023-04-25T09:32:15;3;3;
56688;PMS5003;42565;53.342;-1.534;2023-04-25T09:34:45;3;3;
56688;PMS5003;42565;53.342;-1.534;2023-04-25T09:37:16;2;2;
56688;PMS5003;42565;53.342;-1.534;2023-04-25T09:39:44;3;3;
56688;PMS5003;42565;53.342;-1.534;2023-04-25T09:42:12;3;3;
56688;PMS5003;42565;53.342;-1.534;2023-04-25T09:44:42;3;3;
56688;PMS5003;42565;53.342;-1.534;2023-04-25T09:47:10;3;3;
56688;PMS5003;42565;53.342;-1.534;2023-04-25T09:49:40;4;3;
56688;PMS5003;42565;53.342;-1.534;2023-04-25T09:52:09;4;3;
56688;PMS5003;42565;53.342;-1.534;2023-04-25T09:54:40;3;3;
56688;PMS5003;42565;53.342;-1.534;2023-04-25T09:57:10;4;3;
56688;PMS5003;42565;53.342;-1.534;2023-04-25T09:59:42;4;3;
56688;PMS5003;42565;53.342;-1.534;2023-04-25T10:02:11;2;2;
56688;PMS5003;42565;53.342;-1.534;2023-04-25T10:04:40;3;3;
56688;PMS5003;42565;53.342;-1.534;2023-04-25T10:07:08;3;3;
56688;PMS5003;42565;53.342;-1.534;2023-04-25T10:09:36;4;3;
56688;PMS5003;42565;53.342;-1.534;2023-04-25T10:12:04;2;2;
56688;PMS5003;42565;53.342;-1.534;2023-04-25T10:14:32;2;2;
56688;PMS5003;42565;53.342;-1.534;2023-04-25T10:16:59;3;3;
56688;PMS5003;42565;53.342;-1.534;2023-04-25T10:19:28;4;3;
56688;PMS5003;42565;53.342;-1.534;2023-04-25T10:21:56;4;4;
56688;PMS5003;42565;53.342;-1.534;2023-04-25T10:24:43;1;1;
56688;PMS5003;42565;53.342;-1.534;2023-04-25T10:27:12;3;3;
56688;PMS5003;42565;53.342;-1.534;2023-04-25T10:29:40;3;3;
56688;PMS5003;42565;53.342;-1.534;2023-04-25T10:32:08;4;4;
56688;PMS5003;42565;53.342;-1.534;2023-04-25T10:34:39;2;2;
56688;PMS5003;42565;53.342;-1.534;2023-04-25T10:37:09;3;3;
56688;PMS5003;42565;53.342;-1.534;2023-04-25T10:39:38;3;3;
56688;PMS5003;42565;53.342;-1.534;2023-04-25T10:42:06;4;4;
56688;PMS5003;42565;53.342;-1.534;2023-04-25T10:44:33;2;2;
56688;PMS5003;42565;53.342;-1.534;2023-04-25T10:47:03;4;3;
56688;PMS5003;42565;53.342;-1.534;2023-04-25T10:49:33;4;4;
56688;PMS5003;42565;53.342;-1.534;2023-04-25T10:52:18;4;3;
56688;PMS5003;42565;53.342;-1.534;2023-04-25T10:54:52;4;3;
56688;PMS5003;42565;53.342;-1.534;2023-04-25T10:57:28;5;5;
56688;PMS5003;42565;53.342;-1.534;2023-04-25T10:59:58;2;2;
56688;PMS5003;42565;53.342;-1.534;2023-04-25T11:02:26;4;3;
56688;PMS5003;42565;53.342;-1.534;2023-04-25T11:04:54;5;3;
56688;PMS5003;42565;53.342;-1.534;2023-04-25T11:07:25;2;2;
56688;PMS5003;42565;53.342;-1.534;2023-04-25T11:10:01;4;4;
56688;PMS5003;42565;53.342;-1.534;2023-04-25T11:12:29;3;3;
56688;PMS5003;42565;53.342;-1.534;2023-04-25T11:14:59;7;3;
56688;PMS5003;42565;53.342;-1.534;2023-04-25T11:17:27;4;4;
56688;PMS5003;42565;53.342;-1.534;2023-04-25T11:19:55;5;4;
56688;PMS5003;42565;53.342;-1.534;2023-04-25T11:22:23;5;5;
56688;PMS5003;42565;53.342;-1.534;2023-04-25T11:24:50;5;5;
56688;PMS5003;42565;53.342;-1.534;2023-04-25T11:27:18;5;3;
56688;PMS5003;42565;53.342;-1.534;2023-04-25T11:29:46;3;3;
56688;PMS5003;42565;53.342;-1.534;2023-04-25T11:32:13;4;3;
56688;PMS5003;42565;53.342;-1.534;2023-04-25T11:34:42;5;4;
56688;PMS5003;42565;53.342;-1.534;2023-04-25T11:37:11;4;4;
56688;PMS5003;42565;53.342;-1.534;2023-04-25T11:39:39;6;4;
56688;PMS5003;42565;53.342;-1.534;2023-04-25T11:42:09;5;5;
56688;PMS5003;42565;53.342;-1.534;2023-04-25T11:44:37;5;4;
56688;PMS5003;42565;53.342;-1.534;2023-04-25T11:47:04;4;4;
56688;PMS5003;42565;53.342;-1.534;2023-04-25T11:49:32;7;5;
56688;PMS5003;42565;53.342;-1.534;2023-04-25T11:51:59;7;6;
56688;PMS5003;42565;53.342;-1.534;2023-04-25T11:54:27;4;4;
56688;PMS5003;42565;53.342;-1.534;2023-04-25T11:56:54;5;4;
56688;PMS5003;42565;53.342;-1.534;2023-04-25T11:59:23;5;4;
56688;PMS5003;42565;53.342;-1.534;2023-04-25T12:01:51;5;5;
56688;PMS5003;42565;53.342;-1.534;2023-04-25T12:04:19;6;5;
56688;PMS5003;42565;53.342;-1.534;2023-04-25T12:06:48;6;6;
56688;PMS5003;42565;53.342;-1.534;2023-04-25T12:09:17;4;4;
56688;PMS5003;42565;53.342;-1.534;2023-04-25T12:11:46;6;5;
56688;PMS5003;42565;53.342;-1.534;2023-04-25T12:14:23;6;6;
56688;PMS5003;42565;53.342;-1.534;2023-04-25T12:16:53;6;5;
56688;PMS5003;42565;53.342;-1.534;2023-04-25T12:19:21;6;6;
56688;PMS5003;42565;53.342;-1.534;2023-04-25T12:21:49;6;6;
56688;PMS5003;42565;53.342;-1.534;2023-04-25T12:24:17;4;4;
56688;PMS5003;42565;53.342;-1.534;2023-04-25T12:26:48;5;5;
56688;PMS5003;42565;53.342;-1.534;2023-04-25T12:29:17;4;4;
56688;PMS5003;42565;53.342;-1.534;2023-04-25T12:31:46;5;5;
56688;PMS5003;42565;53.342;-1.534;2023-04-25T12:34:13;5;5;
56688;PMS5003;42565;53.342;-1.534;2023-04-25T12:36:41;5;5;
56688;PMS5003;42565;53.342;-1.534;2023-04-25T12:39:14;6;5;
56688;PMS5003;42565;53.342;-1.534;2023-04-25T12:41:41;5;5;
56688;PMS5003;42565;53.342;-1.534;2023-04-25T12:44:09;5;4;
56688;PMS5003;42565;53.342;-1.534;2023-04-25T12:46:36;6;6;
56688;PMS5003;42565;53.342;-1.534;2023-04-25T12:49:04;6;5;
56688;PMS5003;42565;53.342;-1.534;2023-04-25T12:51:31;7;6;
56688;PMS5003;42565;53.342;-1.534;2023-04-25T12:53:59;6;6;
56688;PMS5003;42565;53.342;-1.534;2023-04-25T12:56:27;4;4;
56688;PMS5003;42565;53.342;-1.534;2023-04-25T12:58:55;5;5;
56688;PMS5003;42565;53.342;-1.534;2023-04-25T13:01:23;7;6;
56688;PMS5003;42565;53.342;-1.534;2023-04-25T13:03:50;6;5;
56688;PMS5003;42565;53.342;-1.534;2023-04-25T13:06:18;5;5;
56688;PMS5003;42565;53.342;-1.534;2023-04-25T13:08:46;3;3;
56688;PMS5003;42565;53.342;-1.534;2023-04-25T13:11:13;7;6;
56688;PMS5003;42565;53.342;-1.534;2023-04-25T13:13:40;7;7;
56688;PMS5003;42565;53.342;-1.534;2023-04-25T13:16:08;7;6;
56688;PMS5003;42565;53.342;-1.534;2023-04-25T13:18:35;7;6;
56688;PMS5003;42565;53.342;-1.534;2023-04-25T13:21:03;6;6;
56688;PMS5003;42565;53.342;-1.534;2023-04-25T13:23:30;7;6;
56688;PMS5003;42565;53.342;-1.534;2023-04-25T13:25:58;7;7;
56688;PMS5003;42565;53.342;-1.534;2023-04-25T13:28:25;6;6;
56688;PMS5003;42565;53.342;-1.534;2023-04-25T13:30:53;7;6;
56688;PMS5003;42565;53.342;-1.534;2023-04-25T13:33:20;7;6;
56688;PMS5003;42565;53.342;-1.534;2023-04-25T13:35:48;7;5;
56688;PMS5003;42565;53.342;-1.534;2023-04-25T13:38:16;5;4;
56688;PMS5003;42565;53.342;-1.534;2023-04-25T13:40:44;7;7;
56688;PMS5003;42565;53.342;-1.534;2023-04-25T13:43:11;6;6;
56688;PMS5003;42565;53.342;-1.534;2023-04-25T13:45:38;6;6;
56688;PMS5003;42565;53.342;-1.534;2023-04-25T13:48:05;8;6;
56688;PMS5003;42565;53.342;-1.534;2023-04-25T13:50:33;5;5;
56688;PMS5003;42565;53.342;-1.534;2023-04-25T13:53:01;4;4;
56688;PMS5003;42565;53.342;-1.534;2023-04-25T13:55:28;6;5;
56688;PMS5003;42565;53.342;-1.534;2023-04-25T13:57:56;6;6;
56688;PMS5003;42565;53.342;-1.534;2023-04-25T14:00:23;8;8;
56688;PMS5003;42565;53.342;-1.534;2023-04-25T14:02:51;6;6;
56688;PMS5003;42565;53.342;-1.534;2023-04-25T14:05:19;5;5;
56688;PMS5003;42565;53.342;-1.534;2023-04-25T14:07:46;6;5;
56688;PMS5003;42565;53.342;-1.534;2023-04-25T14:10:14;5;5;
56688;PMS5003;42565;53.342;-1.534;2023-04-25T14:12:41;7;6;
56688;PMS5003;42565;53.342;-1.534;2023-04-25T14:15:09;4;4;
56688;PMS5003;42565;53.342;-1.534;2023-04-25T14:17:37;6;5;
56688;PMS5003;42565;53.342;-1.534;2023-04-25T14:20:05;5;5;
56688;PMS5003;42565;53.342;-1.534;2023-04-25T14:22:34;7;6;
56688;PMS5003;42565;53.342;-1.534;2023-04-25T14:25:02;6;6;
56688;PMS5003;42565;53.342;-1.534;2023-04-25T14:27:29;9;9;
56688;PMS5003;42565;53.342;-1.534;2023-04-25T14:29:57;13;11;
56688;PMS5003;42565;53.342;-1.534;2023-04-25T14:32:25;7;7;
56688;PMS5003;42565;53.342;-1.534;2023-04-25T14:34:52;6;6;
56688;PMS5003;42565;53.342;-1.534;2023-04-25T14:37:19;7;6;
56688;PMS5003;42565;53.342;-1.534;2023-04-25T14:39:47;7;6;
56688;PMS5003;42565;53.342;-1.534;2023-04-25T14:42:15;6;6;
56688;PMS5003;42565;53.342;-1.534;2023-04-25T14:44:42;6;6;
56688;PMS5003;42565;53.342;-1.534;2023-04-25T14:47:10;7;7;
56688;PMS5003;42565;53.342;-1.534;2023-04-25T14:49:37;5;5;
56688;PMS5003;42565;53.342;-1.534;2023-04-25T14:52:05;6;6;
56688;PMS5003;42565;53.342;-1.534;2023-04-25T14:54:33;5;5;
56688;PMS5003;42565;53.342;-1.534;2023-04-25T14:57:00;8;7;
56688;PMS5003;42565;53.342;-1.534;2023-04-25T14:59:27;6;6;
56688;PMS5003;42565;53.342;-1.534;2023-04-25T15:02:00;7;6;
56688;PMS5003;42565;53.342;-1.534;2023-04-25T15:04:28;6;6;
56688;PMS5003;42565;53.342;-1.534;2023-04-25T15:06:55;7;7;
56688;PMS5003;42565;53.342;-1.534;2023-04-25T15:09:23;8;8;
56688;PMS5003;42565;53.342;-1.534;2023-04-25T15:11:51;7;7;
56688;PMS5003;42565;53.342;-1.534;2023-04-25T15:14:18;5;5;
56688;PMS5003;42565;53.342;-1.534;2023-04-25T15:16:46;7;7;
56688;PMS5003;42565;53.342;-1.534;2023-04-25T15:19:13;7;7;
56688;PMS5003;42565;53.342;-1.534;2023-04-25T15:21:40;7;7;
56688;PMS5003;42565;53.342;-1.534;2023-04-25T15:24:07;6;6;
56688;PMS5003;42565;53.342;-1.534;2023-04-25T15:26:35;7;7;
56688;PMS5003;42565;53.342;-1.534;2023-04-25T15:29:02;4;4;
56688;PMS5003;42565;53.342;-1.534;2023-04-25T15:31:29;4;4;
56688;PMS5003;42565;53.342;-1.534;2023-04-25T15:33:57;7;7;
56688;PMS5003;42565;53.342;-1.534;2023-04-25T15:36:24;5;5;
56688;PMS5003;42565;53.342;-1.534;2023-04-25T15:38:52;4;4;
56688;PMS5003;42565;53.342;-1.534;2023-04-25T15:41:20;4;4;
56688;PMS5003;42565;53.342;-1.534;2023-04-25T15:43:47;5;5;
56688;PMS5003;42565;53.342;-1.534;2023-04-25T15:46:15;6;5;
56688;PMS5003;42565;53.342;-1.534;2023-04-25T15:48:42;7;6;
56688;PMS5003;42565;53.342;-1.534;2023-04-25T15:51:10;5;5;
56688;PMS5003;42565;53.342;-1.534;2023-04-25T15:53:37;6;6;
56688;PMS5003;42565;53.342;-1.534;2023-04-25T15:56:05;4;4;
56688;PMS5003;42565;53.342;-1.534;2023-04-25T15:58:33;5;5;
56688;PMS5003;42565;53.342;-1.534;2023-04-25T16:01:00;4;4;
56688;PMS5003;42565;53.342;-1.534;2023-04-25T16:03:28;4;3;
56688;PMS5003;42565;53.342;-1.534;2023-04-25T16:05:55;4;4;
56688;PMS5003;42565;53.342;-1.534;2023-04-25T16:08:23;4;4;
56688;PMS5003;42565;53.342;-1.534;2023-04-25T16:10:50;6;6;
56688;PMS5003;42565;53.342;-1.534;2023-04-25T16:13:18;7;6;
56688;PMS5003;42565;53.342;-1.534;2023-04-25T16:15:45;5;5;
56688;PMS5003;42565;53.342;-1.534;2023-04-25T16:18:12;5;5;
56688;PMS5003;42565;53.342;-1.534;2023-04-25T16:20:40;6;6;
56688;PMS5003;42565;53.342;-1.534;2023-04-25T16:23:07;5;5;
56688;PMS5003;42565;53.342;-1.534;2023-04-25T16:25:35;4;4;
56688;PMS5003;42565;53.342;-1.534;2023-04-25T16:28:03;6;6;
56688;PMS5003;42565;53.342;-1.534;2023-04-25T16:30:30;5;5;
56688;PMS5003;42565;53.342;-1.534;2023-04-25T16:32:58;4;4;
56688;PMS5003;42565;53.342;-1.534;2023-04-25T16:35:25;3;3;
56688;PMS5003;42565;53.342;-1.534;2023-04-25T16:37:52;5;5;